sensor_id;sensor_type;location;lat;lon;timestamp;P1;durP1;ratioP1;P2;durP2;ratioP2
19183;SDS011;9724;51.194;6.856;2022-08-07T00:00:34;2.00;;;1.43;;
19183;SDS011;9724;51.194;6.856;2022-08-07T00:03:05;2.00;;;1.50;;
19183;SDS011;9724;51.194;6.856;2022-08-07T00:05:35;1.60;;;1.50;;
19183;SDS011;9724;51.194;6.856;2022-08-07T00:08:03;5.60;;;1.80;;
19183;SDS011;9724;51.194;6.856;2022-08-07T00:10:33;1.40;;;1.40;;
19183;SDS011;9724;51.194;6.856;2022-08-07T00:13:13;1.70;;;1.60;;
19183;SDS011;9724;51.194;6.856;2022-08-07T00:15:49;2.50;;;1.60;;
19183;SDS011;9724;51.194;6.856;2022-08-07T00:18:18;2.70;;;1.57;;
19183;SDS011;9724;51.194;6.856;2022-08-07T00:20:51;3.23;;;1.40;;
19183;SDS011;9724;51.194;6.856;2022-08-07T00:23:20;1.73;;;1.57;;
19183;SDS011;9724;51.194;6.856;2022-08-07T00:25:48;3.80;;;1.70;;
19183;SDS011;9724;51.194;6.856;2022-08-07T00:28:25;2.13;;;1.70;;
19183;SDS011;9724;51.194;6.856;2022-08-07T00:30:59;2.27;;;1.43;;
19183;SDS011;9724;51.194;6.856;2022-08-07T00:33:31;5.33;;;1.87;;
19183;SDS011;9724;51.194;6.856;2022-08-07T00:36:00;4.13;;;1.70;;
19183;SDS011;9724;51.194;6.856;2022-08-07T00:38:28;8.23;;;1.93;;
19183;SDS011;9724;51.194;6.856;2022-08-07T00:40:58;3.00;;;1.50;;
19183;SDS011;9724;51.194;6.856;2022-08-07T00:43:26;2.73;;;1.67;;
19183;SDS011;9724;51.194;6.856;2022-08-07T00:46:14;1.83;;;1.57;;
19183;SDS011;9724;51.194;6.856;2022-08-07T00:48:43;3.47;;;1.57;;
19183;SDS011;9724;51.194;6.856;2022-08-07T00:51:16;2.53;;;1.80;;
19183;SDS011;9724;51.194;6.856;2022-08-07T00:53:44;2.60;;;1.83;;
19183;SDS011;9724;51.194;6.856;2022-08-07T00:56:21;2.77;;;1.60;;
19183;SDS011;9724;51.194;6.856;2022-08-07T00:58:59;5.10;;;1.60;;
19183;SDS011;9724;51.194;6.856;2022-08-07T01:01:27;5.23;;;1.60;;
19183;SDS011;9724;51.194;6.856;2022-08-07T01:04:09;2.23;;;1.83;;
19183;SDS011;9724;51.194;6.856;2022-08-07T01:06:51;2.60;;;1.70;;
19183;SDS011;9724;51.194;6.856;2022-08-07T01:09:19;4.70;;;1.90;;
19183;SDS011;9724;51.194;6.856;2022-08-07T01:12:06;2.40;;;1.80;;
19183;SDS011;9724;51.194;6.856;2022-08-07T01:14:54;1.80;;;1.70;;
19183;SDS011;9724;51.194;6.856;2022-08-07T01:17:28;3.43;;;1.70;;
19183;SDS011;9724;51.194;6.856;2022-08-07T01:19:57;2.40;;;1.97;;
19183;SDS011;9724;51.194;6.856;2022-08-07T01:22:31;1.90;;;1.80;;
19183;SDS011;9724;51.194;6.856;2022-08-07T01:24:58;2.63;;;1.50;;
19183;SDS011;9724;51.194;6.856;2022-08-07T01:27:47;2.50;;;1.90;;
19183;SDS011;9724;51.194;6.856;2022-08-07T01:30:16;1.60;;;1.50;;
19183;SDS011;9724;51.194;6.856;2022-08-07T01:32:44;3.33;;;1.83;;
19183;SDS011;9724;51.194;6.856;2022-08-07T01:35:12;5.93;;;2.30;;
19183;SDS011;9724;51.194;6.856;2022-08-07T01:37:43;1.97;;;1.87;;
19183;SDS011;9724;51.194;6.856;2022-08-07T01:40:11;3.73;;;2.20;;
19183;SDS011;9724;51.194;6.856;2022-08-07T01:42:40;6.60;;;2.00;;
19183;SDS011;9724;51.194;6.856;2022-08-07T01:45:24;2.43;;;2.23;;
19183;SDS011;9724;51.194;6.856;2022-08-07T01:48:05;3.43;;;1.80;;
19183;SDS011;9724;51.194;6.856;2022-08-07T01:50:54;3.40;;;1.60;;
19183;SDS011;9724;51.194;6.856;2022-08-07T01:53:26;1.53;;;1.43;;
19183;SDS011;9724;51.194;6.856;2022-08-07T01:56:15;1.87;;;1.77;;
19183;SDS011;9724;51.194;6.856;2022-08-07T01:58:47;1.63;;;1.53;;
19183;SDS011;9724;51.194;6.856;2022-08-07T02:01:19;1.97;;;1.77;;
19183;SDS011;9724;51.194;6.856;2022-08-07T02:04:09;1.70;;;1.67;;
19183;SDS011;9724;51.194;6.856;2022-08-07T02:06:41;5.27;;;1.63;;
19183;SDS011;9724;51.194;6.856;2022-08-07T02:09:13;1.97;;;1.77;;
19183;SDS011;9724;51.194;6.856;2022-08-07T02:12:02;1.60;;;1.50;;
19183;SDS011;9724;51.194;6.856;2022-08-07T02:14:43;1.43;;;1.40;;
19183;SDS011;9724;51.194;6.856;2022-08-07T02:17:15;4.10;;;1.80;;
19183;SDS011;9724;51.194;6.856;2022-08-07T02:19:57;3.30;;;1.70;;
19183;SDS011;9724;51.194;6.856;2022-08-07T02:22:35;2.50;;;1.50;;
19183;SDS011;9724;51.194;6.856;2022-08-07T02:25:08;3.80;;;2.00;;
19183;SDS011;9724;51.194;6.856;2022-08-07T02:27:42;1.70;;;1.60;;
19183;SDS011;9724;51.194;6.856;2022-08-07T02:30:18;1.70;;;1.60;;
19183;SDS011;9724;51.194;6.856;2022-08-07T02:32:46;2.37;;;1.70;;
19183;SDS011;9724;51.194;6.856;2022-08-07T02:35:35;3.33;;;1.80;;
19183;SDS011;9724;51.194;6.856;2022-08-07T02:38:24;1.67;;;1.60;;
19183;SDS011;9724;51.194;6.856;2022-08-07T02:40:58;2.00;;;1.67;;
19183;SDS011;9724;51.194;6.856;2022-08-07T02:43:29;1.63;;;1.53;;
19183;SDS011;9724;51.194;6.856;2022-08-07T02:45:57;2.97;;;1.43;;
19183;SDS011;9724;51.194;6.856;2022-08-07T02:48:28;2.37;;;1.67;;
19183;SDS011;9724;51.194;6.856;2022-08-07T02:50:56;3.13;;;1.53;;
19183;SDS011;9724;51.194;6.856;2022-08-07T02:53:27;2.30;;;1.70;;
19183;SDS011;9724;51.194;6.856;2022-08-07T02:56:06;3.40;;;1.60;;
19183;SDS011;9724;51.194;6.856;2022-08-07T02:58:47;2.20;;;1.50;;
19183;SDS011;9724;51.194;6.856;2022-08-07T03:01:20;4.37;;;1.47;;
19183;SDS011;9724;51.194;6.856;2022-08-07T03:04:02;1.87;;;1.50;;
19183;SDS011;9724;51.194;6.856;2022-08-07T03:06:34;1.33;;;1.30;;
19183;SDS011;9724;51.194;6.856;2022-08-07T03:09:04;1.50;;;1.50;;
19183;SDS011;9724;51.194;6.856;2022-08-07T03:11:38;1.50;;;1.50;;
19183;SDS011;9724;51.194;6.856;2022-08-07T03:14:23;4.20;;;1.60;;
19183;SDS011;9724;51.194;6.856;2022-08-07T03:16:53;3.37;;;1.67;;
19183;SDS011;9724;51.194;6.856;2022-08-07T03:19:21;3.03;;;1.57;;
19183;SDS011;9724;51.194;6.856;2022-08-07T03:21:54;2.00;;;1.73;;
19183;SDS011;9724;51.194;6.856;2022-08-07T03:24:23;2.70;;;1.70;;
19183;SDS011;9724;51.194;6.856;2022-08-07T03:26:54;1.83;;;1.73;;
19183;SDS011;9724;51.194;6.856;2022-08-07T03:29:28;5.40;;;1.70;;
19183;SDS011;9724;51.194;6.856;2022-08-07T03:32:03;5.57;;;2.27;;
19183;SDS011;9724;51.194;6.856;2022-08-07T03:34:38;3.07;;;2.00;;
19183;SDS011;9724;51.194;6.856;2022-08-07T03:37:26;2.97;;;1.70;;
19183;SDS011;9724;51.194;6.856;2022-08-07T03:39:58;2.13;;;1.97;;
19183;SDS011;9724;51.194;6.856;2022-08-07T03:42:42;2.00;;;1.80;;
19183;SDS011;9724;51.194;6.856;2022-08-07T03:45:14;2.37;;;1.70;;
19183;SDS011;9724;51.194;6.856;2022-08-07T03:47:55;3.33;;;1.43;;
19183;SDS011;9724;51.194;6.856;2022-08-07T03:50:24;3.23;;;1.63;;
19183;SDS011;9724;51.194;6.856;2022-08-07T03:52:55;2.70;;;1.80;;
19183;SDS011;9724;51.194;6.856;2022-08-07T03:55:24;6.53;;;1.70;;
19183;SDS011;9724;51.194;6.856;2022-08-07T03:58:13;4.13;;;1.53;;
19183;SDS011;9724;51.194;6.856;2022-08-07T04:01:01;1.50;;;1.50;;
19183;SDS011;9724;51.194;6.856;2022-08-07T04:03:32;4.30;;;2.00;;
19183;SDS011;9724;51.194;6.856;2022-08-07T04:06:19;2.53;;;1.87;;
19183;SDS011;9724;51.194;6.856;2022-08-07T04:09:03;2.50;;;1.50;;
19183;SDS011;9724;51.194;6.856;2022-08-07T04:11:40;1.80;;;1.70;;
19183;SDS011;9724;51.194;6.856;2022-08-07T04:14:30;3.60;;;1.90;;
19183;SDS011;9724;51.194;6.856;2022-08-07T04:17:08;5.47;;;2.00;;
19183;SDS011;9724;51.194;6.856;2022-08-07T04:19:47;2.50;;;1.90;;
19183;SDS011;9724;51.194;6.856;2022-08-07T04:22:20;2.43;;;2.07;;
19183;SDS011;9724;51.194;6.856;2022-08-07T04:24:54;2.40;;;2.13;;
19183;SDS011;9724;51.194;6.856;2022-08-07T04:27:23;2.33;;;2.13;;
19183;SDS011;9724;51.194;6.856;2022-08-07T04:30:11;5.23;;;2.07;;
19183;SDS011;9724;51.194;6.856;2022-08-07T04:33:00;4.10;;;1.70;;
19183;SDS011;9724;51.194;6.856;2022-08-07T04:35:32;2.67;;;1.90;;
19183;SDS011;9724;51.194;6.856;2022-08-07T04:38:03;5.20;;;2.30;;
19183;SDS011;9724;51.194;6.856;2022-08-07T04:40:33;2.47;;;2.03;;
19183;SDS011;9724;51.194;6.856;2022-08-07T04:43:17;2.43;;;2.00;;
19183;SDS011;9724;51.194;6.856;2022-08-07T04:46:09;3.07;;;2.27;;
19183;SDS011;9724;51.194;6.856;2022-08-07T04:48:53;4.90;;;2.20;;
19183;SDS011;9724;51.194;6.856;2022-08-07T04:51:41;4.10;;;2.03;;
19183;SDS011;9724;51.194;6.856;2022-08-07T04:54:17;4.93;;;2.43;;
19183;SDS011;9724;51.194;6.856;2022-08-07T04:56:56;5.03;;;2.00;;
19183;SDS011;9724;51.194;6.856;2022-08-07T04:59:49;4.77;;;2.00;;
19183;SDS011;9724;51.194;6.856;2022-08-07T05:02:46;2.67;;;2.47;;
19183;SDS011;9724;51.194;6.856;2022-08-07T05:05:20;4.07;;;1.93;;
19183;SDS011;9724;51.194;6.856;2022-08-07T05:08:11;2.73;;;2.50;;
19183;SDS011;9724;51.194;6.856;2022-08-07T05:11:04;4.67;;;2.20;;
19183;SDS011;9724;51.194;6.856;2022-08-07T05:13:46;3.47;;;2.33;;
19183;SDS011;9724;51.194;6.856;2022-08-07T05:16:39;3.87;;;1.93;;
19183;SDS011;9724;51.194;6.856;2022-08-07T05:19:12;3.20;;;1.83;;
19183;SDS011;9724;51.194;6.856;2022-08-07T05:21:43;4.07;;;1.83;;
19183;SDS011;9724;51.194;6.856;2022-08-07T05:24:26;2.20;;;1.80;;
19183;SDS011;9724;51.194;6.856;2022-08-07T05:26:56;5.50;;;2.00;;
19183;SDS011;9724;51.194;6.856;2022-08-07T05:29:26;3.70;;;1.83;;
19183;SDS011;9724;51.194;6.856;2022-08-07T05:32:14;1.60;;;1.50;;
19183;SDS011;9724;51.194;6.856;2022-08-07T05:34:48;2.47;;;1.80;;
19183;SDS011;9724;51.194;6.856;2022-08-07T05:37:17;1.60;;;1.50;;
19183;SDS011;9724;51.194;6.856;2022-08-07T05:39:51;2.40;;;1.80;;
19183;SDS011;9724;51.194;6.856;2022-08-07T05:42:39;2.07;;;1.83;;
19183;SDS011;9724;51.194;6.856;2022-08-07T05:45:21;2.27;;;1.70;;
19183;SDS011;9724;51.194;6.856;2022-08-07T05:48:10;2.13;;;1.70;;
19183;SDS011;9724;51.194;6.856;2022-08-07T05:50:40;1.90;;;1.80;;
19183;SDS011;9724;51.194;6.856;2022-08-07T05:53:08;2.63;;;1.90;;
19183;SDS011;9724;51.194;6.856;2022-08-07T05:55:56;3.00;;;1.60;;
19183;SDS011;9724;51.194;6.856;2022-08-07T05:58:30;3.73;;;1.50;;
19183;SDS011;9724;51.194;6.856;2022-08-07T06:01:02;1.70;;;1.60;;
19183;SDS011;9724;51.194;6.856;2022-08-07T06:03:35;1.37;;;1.27;;
19183;SDS011;9724;51.194;6.856;2022-08-07T06:06:25;3.57;;;1.57;;
19183;SDS011;9724;51.194;6.856;2022-08-07T06:08:58;1.93;;;1.50;;
19183;SDS011;9724;51.194;6.856;2022-08-07T06:11:29;4.33;;;1.60;;
19183;SDS011;9724;51.194;6.856;2022-08-07T06:13:57;5.07;;;1.33;;
19183;SDS011;9724;51.194;6.856;2022-08-07T06:16:45;1.30;;;1.20;;
19183;SDS011;9724;51.194;6.856;2022-08-07T06:19:16;2.00;;;1.90;;
19183;SDS011;9724;51.194;6.856;2022-08-07T06:22:05;2.53;;;1.40;;
19183;SDS011;9724;51.194;6.856;2022-08-07T06:24:47;3.03;;;1.37;;
19183;SDS011;9724;51.194;6.856;2022-08-07T06:27:26;3.37;;;1.40;;
19183;SDS011;9724;51.194;6.856;2022-08-07T06:30:13;1.33;;;1.20;;
19183;SDS011;9724;51.194;6.856;2022-08-07T06:33:01;1.40;;;1.30;;
19183;SDS011;9724;51.194;6.856;2022-08-07T06:35:29;1.50;;;1.40;;
19183;SDS011;9724;51.194;6.856;2022-08-07T06:38:14;2.47;;;1.30;;
19183;SDS011;9724;51.194;6.856;2022-08-07T06:40:46;4.77;;;1.40;;
19183;SDS011;9724;51.194;6.856;2022-08-07T06:43:15;1.00;;;0.93;;
19183;SDS011;9724;51.194;6.856;2022-08-07T06:45:47;4.73;;;1.53;;
19183;SDS011;9724;51.194;6.856;2022-08-07T06:48:15;1.37;;;1.20;;
19183;SDS011;9724;51.194;6.856;2022-08-07T06:50:50;2.73;;;1.23;;
19183;SDS011;9724;51.194;6.856;2022-08-07T06:53:20;2.90;;;1.10;;
19183;SDS011;9724;51.194;6.856;2022-08-07T06:56:09;1.10;;;1.00;;
19183;SDS011;9724;51.194;6.856;2022-08-07T06:58:41;2.20;;;1.40;;
19183;SDS011;9724;51.194;6.856;2022-08-07T07:01:29;3.40;;;1.03;;
19183;SDS011;9724;51.194;6.856;2022-08-07T07:04:07;1.80;;;1.10;;
19183;SDS011;9724;51.194;6.856;2022-08-07T07:06:53;1.20;;;1.10;;
19183;SDS011;9724;51.194;6.856;2022-08-07T07:09:28;1.60;;;1.17;;
19183;SDS011;9724;51.194;6.856;2022-08-07T07:12:16;3.83;;;0.90;;
19183;SDS011;9724;51.194;6.856;2022-08-07T07:14:57;3.27;;;1.20;;
19183;SDS011;9724;51.194;6.856;2022-08-07T07:17:31;0.90;;;0.90;;
19183;SDS011;9724;51.194;6.856;2022-08-07T07:20:11;1.67;;;1.37;;
19183;SDS011;9724;51.194;6.856;2022-08-07T07:22:44;1.57;;;0.93;;
19183;SDS011;9724;51.194;6.856;2022-08-07T07:25:33;1.13;;;1.03;;
19183;SDS011;9724;51.194;6.856;2022-08-07T07:28:22;2.57;;;1.20;;
19183;SDS011;9724;51.194;6.856;2022-08-07T07:31:13;1.07;;;1.07;;
19183;SDS011;9724;51.194;6.856;2022-08-07T07:33:47;1.40;;;1.00;;
19183;SDS011;9724;51.194;6.856;2022-08-07T07:36:22;2.47;;;0.80;;
19183;SDS011;9724;51.194;6.856;2022-08-07T07:38:58;0.93;;;0.87;;
19183;SDS011;9724;51.194;6.856;2022-08-07T07:41:28;1.87;;;1.00;;
19183;SDS011;9724;51.194;6.856;2022-08-07T07:44:17;2.10;;;1.00;;
19183;SDS011;9724;51.194;6.856;2022-08-07T07:46:51;2.07;;;1.17;;
19183;SDS011;9724;51.194;6.856;2022-08-07T07:49:41;4.23;;;1.00;;
19183;SDS011;9724;51.194;6.856;2022-08-07T07:52:29;1.73;;;1.00;;
19183;SDS011;9724;51.194;6.856;2022-08-07T07:54:58;2.40;;;0.97;;
19183;SDS011;9724;51.194;6.856;2022-08-07T07:57:30;0.80;;;0.80;;
19183;SDS011;9724;51.194;6.856;2022-08-07T08:00:18;5.50;;;0.80;;
19183;SDS011;9724;51.194;6.856;2022-08-07T08:03:01;5.07;;;1.30;;
19183;SDS011;9724;51.194;6.856;2022-08-07T08:05:34;1.20;;;0.97;;
19183;SDS011;9724;51.194;6.856;2022-08-07T08:08:21;1.00;;;0.90;;
19183;SDS011;9724;51.194;6.856;2022-08-07T08:11:02;2.23;;;1.10;;
19183;SDS011;9724;51.194;6.856;2022-08-07T08:13:35;1.13;;;0.83;;
19183;SDS011;9724;51.194;6.856;2022-08-07T08:16:19;1.30;;;0.70;;
19183;SDS011;9724;51.194;6.856;2022-08-07T08:18:50;1.00;;;0.80;;
19183;SDS011;9724;51.194;6.856;2022-08-07T08:21:21;2.30;;;0.90;;
19183;SDS011;9724;51.194;6.856;2022-08-07T08:24:28;3.20;;;0.80;;
19183;SDS011;9724;51.194;6.856;2022-08-07T08:27:30;5.20;;;1.00;;
19183;SDS011;9724;51.194;6.856;2022-08-07T08:30:03;2.73;;;0.80;;
19183;SDS011;9724;51.194;6.856;2022-08-07T08:32:33;2.23;;;0.77;;
19183;SDS011;9724;51.194;6.856;2022-08-07T08:35:06;2.30;;;0.73;;
19183;SDS011;9724;51.194;6.856;2022-08-07T08:37:42;4.40;;;0.70;;
19183;SDS011;9724;51.194;6.856;2022-08-07T08:40:29;2.07;;;0.90;;
19183;SDS011;9724;51.194;6.856;2022-08-07T08:43:00;1.63;;;0.80;;
19183;SDS011;9724;51.194;6.856;2022-08-07T08:45:36;0.73;;;0.73;;
19183;SDS011;9724;51.194;6.856;2022-08-07T08:48:26;1.60;;;0.60;;
19183;SDS011;9724;51.194;6.856;2022-08-07T08:51:04;0.60;;;0.60;;
19183;SDS011;9724;51.194;6.856;2022-08-07T08:53:53;2.73;;;0.90;;
19183;SDS011;9724;51.194;6.856;2022-08-07T08:56:26;0.60;;;0.60;;
19183;SDS011;9724;51.194;6.856;2022-08-07T08:58:58;1.23;;;0.60;;
19183;SDS011;9724;51.194;6.856;2022-08-07T09:01:41;0.83;;;0.80;;
19183;SDS011;9724;51.194;6.856;2022-08-07T09:04:15;0.93;;;0.83;;
19183;SDS011;9724;51.194;6.856;2022-08-07T09:06:52;0.50;;;0.50;;
19183;SDS011;9724;51.194;6.856;2022-08-07T09:09:40;2.73;;;0.60;;
19183;SDS011;9724;51.194;6.856;2022-08-07T09:12:26;1.60;;;0.70;;
19183;SDS011;9724;51.194;6.856;2022-08-07T09:18:21;0.50;;;0.50;;
19183;SDS011;9724;51.194;6.856;2022-08-07T09:20:58;2.80;;;0.60;;
19183;SDS011;9724;51.194;6.856;2022-08-07T09:23:43;0.70;;;0.60;;
19183;SDS011;9724;51.194;6.856;2022-08-07T09:26:38;1.63;;;0.70;;
19183;SDS011;9724;51.194;6.856;2022-08-07T09:29:19;0.40;;;0.40;;
19183;SDS011;9724;51.194;6.856;2022-08-07T09:32:12;1.13;;;0.50;;
19183;SDS011;9724;51.194;6.856;2022-08-07T09:34:49;0.40;;;0.40;;
19183;SDS011;9724;51.194;6.856;2022-08-07T09:37:32;0.77;;;0.53;;
19183;SDS011;9724;51.194;6.856;2022-08-07T09:40:21;0.83;;;0.60;;
19183;SDS011;9724;51.194;6.856;2022-08-07T09:42:53;2.20;;;0.50;;
19183;SDS011;9724;51.194;6.856;2022-08-07T09:45:31;4.37;;;0.67;;
19183;SDS011;9724;51.194;6.856;2022-08-07T09:48:26;3.63;;;0.60;;
19183;SDS011;9724;51.194;6.856;2022-08-07T09:51:28;2.43;;;0.63;;
19183;SDS011;9724;51.194;6.856;2022-08-07T09:54:23;0.60;;;0.60;;
19183;SDS011;9724;51.194;6.856;2022-08-07T09:57:10;0.50;;;0.50;;
19183;SDS011;9724;51.194;6.856;2022-08-07T09:59:52;0.50;;;0.50;;
19183;SDS011;9724;51.194;6.856;2022-08-07T10:02:34;0.80;;;0.60;;
19183;SDS011;9724;51.194;6.856;2022-08-07T10:08:46;0.43;;;0.43;;
19183;SDS011;9724;51.194;6.856;2022-08-07T10:11:27;1.97;;;0.60;;
19183;SDS011;9724;51.194;6.856;2022-08-07T10:14:31;0.57;;;0.50;;
19183;SDS011;9724;51.194;6.856;2022-08-07T10:17:33;0.90;;;0.73;;
19183;SDS011;9724;51.194;6.856;2022-08-07T10:20:31;1.03;;;0.63;;
19183;SDS011;9724;51.194;6.856;2022-08-07T10:23:23;0.47;;;0.47;;
19183;SDS011;9724;51.194;6.856;2022-08-07T10:26:42;1.57;;;0.70;;
19183;SDS011;9724;51.194;6.856;2022-08-07T10:32:20;0.60;;;0.60;;
19183;SDS011;9724;51.194;6.856;2022-08-07T10:35:14;0.70;;;0.70;;
19183;SDS011;9724;51.194;6.856;2022-08-07T10:37:54;0.50;;;0.50;;
19183;SDS011;9724;51.194;6.856;2022-08-07T10:40:50;1.03;;;0.50;;
19183;SDS011;9724;51.194;6.856;2022-08-07T10:43:25;1.23;;;0.60;;
19183;SDS011;9724;51.194;6.856;2022-08-07T10:46:00;0.80;;;0.80;;
19183;SDS011;9724;51.194;6.856;2022-08-07T10:48:34;0.83;;;0.50;;
19183;SDS011;9724;51.194;6.856;2022-08-07T10:51:06;0.70;;;0.70;;
19183;SDS011;9724;51.194;6.856;2022-08-07T10:54:01;0.60;;;0.60;;
19183;SDS011;9724;51.194;6.856;2022-08-07T10:56:39;0.60;;;0.60;;
19183;SDS011;9724;51.194;6.856;2022-08-07T10:59:14;0.47;;;0.47;;
19183;SDS011;9724;51.194;6.856;2022-08-07T11:01:56;1.30;;;0.70;;
19183;SDS011;9724;51.194;6.856;2022-08-07T11:04:45;0.50;;;0.50;;
19183;SDS011;9724;51.194;6.856;2022-08-07T11:07:24;2.30;;;0.70;;
19183;SDS011;9724;51.194;6.856;2022-08-07T11:10:22;2.50;;;0.60;;
19183;SDS011;9724;51.194;6.856;2022-08-07T11:12:55;0.90;;;0.60;;
19183;SDS011;9724;51.194;6.856;2022-08-07T11:15:29;0.50;;;0.40;;
19183;SDS011;9724;51.194;6.856;2022-08-07T11:18:05;0.60;;;0.60;;
19183;SDS011;9724;51.194;6.856;2022-08-07T11:20:40;1.00;;;0.50;;
19183;SDS011;9724;51.194;6.856;2022-08-07T11:23:13;1.30;;;0.70;;
19183;SDS011;9724;51.194;6.856;2022-08-07T11:25:57;2.83;;;0.70;;
19183;SDS011;9724;51.194;6.856;2022-08-07T11:28:33;0.50;;;0.50;;
19183;SDS011;9724;51.194;6.856;2022-08-07T11:31:05;0.57;;;0.57;;
19183;SDS011;9724;51.194;6.856;2022-08-07T11:33:39;1.93;;;0.73;;
19183;SDS011;9724;51.194;6.856;2022-08-07T11:36:29;5.20;;;0.50;;
19183;SDS011;9724;51.194;6.856;2022-08-07T11:39:08;1.10;;;0.70;;
19183;SDS011;9724;51.194;6.856;2022-08-07T11:41:47;1.70;;;0.50;;
19183;SDS011;9724;51.194;6.856;2022-08-07T11:44:31;0.53;;;0.53;;
19183;SDS011;9724;51.194;6.856;2022-08-07T11:47:06;2.63;;;0.50;;
19183;SDS011;9724;51.194;6.856;2022-08-07T11:49:48;0.77;;;0.50;;
19183;SDS011;9724;51.194;6.856;2022-08-07T11:52:50;0.73;;;0.47;;
19183;SDS011;9724;51.194;6.856;2022-08-07T11:55:32;1.43;;;0.60;;
19183;SDS011;9724;51.194;6.856;2022-08-07T11:58:48;0.57;;;0.57;;
19183;SDS011;9724;51.194;6.856;2022-08-07T12:01:28;0.50;;;0.50;;
19183;SDS011;9724;51.194;6.856;2022-08-07T12:04:30;0.83;;;0.53;;
19183;SDS011;9724;51.194;6.856;2022-08-07T12:07:05;4.73;;;0.77;;
19183;SDS011;9724;51.194;6.856;2022-08-07T12:09:52;0.50;;;0.50;;
19183;SDS011;9724;51.194;6.856;2022-08-07T12:12:29;1.63;;;0.60;;
19183;SDS011;9724;51.194;6.856;2022-08-07T12:15:03;3.30;;;0.60;;
19183;SDS011;9724;51.194;6.856;2022-08-07T12:17:44;0.50;;;0.50;;
19183;SDS011;9724;51.194;6.856;2022-08-07T12:20:32;0.83;;;0.50;;
19183;SDS011;9724;51.194;6.856;2022-08-07T12:23:17;1.03;;;0.60;;
19183;SDS011;9724;51.194;6.856;2022-08-07T12:26:10;0.43;;;0.43;;
19183;SDS011;9724;51.194;6.856;2022-08-07T12:28:59;1.13;;;0.50;;
19183;SDS011;9724;51.194;6.856;2022-08-07T12:31:33;1.27;;;0.70;;
19183;SDS011;9724;51.194;6.856;2022-08-07T12:34:25;2.60;;;0.70;;
19183;SDS011;9724;51.194;6.856;2022-08-07T12:36:57;0.63;;;0.50;;
19183;SDS011;9724;51.194;6.856;2022-08-07T12:39:26;2.13;;;0.90;;
19183;SDS011;9724;51.194;6.856;2022-08-07T12:42:16;2.67;;;0.80;;
19183;SDS011;9724;51.194;6.856;2022-08-07T12:44:53;1.00;;;0.50;;
19183;SDS011;9724;51.194;6.856;2022-08-07T12:47:23;1.37;;;0.53;;
19183;SDS011;9724;51.194;6.856;2022-08-07T12:49:59;0.73;;;0.50;;
19183;SDS011;9724;51.194;6.856;2022-08-07T12:52:54;3.30;;;0.60;;
19183;SDS011;9724;51.194;6.856;2022-08-07T12:55:31;0.60;;;0.60;;
19183;SDS011;9724;51.194;6.856;2022-08-07T12:58:22;0.87;;;0.50;;
19183;SDS011;9724;51.194;6.856;2022-08-07T13:00:58;0.57;;;0.50;;
19183;SDS011;9724;51.194;6.856;2022-08-07T13:03:43;0.80;;;0.60;;
19183;SDS011;9724;51.194;6.856;2022-08-07T13:06:35;3.90;;;0.67;;
19183;SDS011;9724;51.194;6.856;2022-08-07T13:09:30;1.17;;;0.50;;
19183;SDS011;9724;51.194;6.856;2022-08-07T13:12:25;0.60;;;0.60;;
19183;SDS011;9724;51.194;6.856;2022-08-07T13:14:58;0.70;;;0.70;;
19183;SDS011;9724;51.194;6.856;2022-08-07T13:17:32;0.50;;;0.50;;
19183;SDS011;9724;51.194;6.856;2022-08-07T13:20:07;2.80;;;0.60;;
19183;SDS011;9724;51.194;6.856;2022-08-07T13:22:40;2.00;;;0.80;;
19183;SDS011;9724;51.194;6.856;2022-08-07T13:25:23;1.10;;;0.50;;
19183;SDS011;9724;51.194;6.856;2022-08-07T13:27:57;1.07;;;0.53;;
19183;SDS011;9724;51.194;6.856;2022-08-07T13:30:39;0.57;;;0.57;;
19183;SDS011;9724;51.194;6.856;2022-08-07T13:33:20;2.40;;;0.60;;
19183;SDS011;9724;51.194;6.856;2022-08-07T13:36:12;0.70;;;0.70;;
19183;SDS011;9724;51.194;6.856;2022-08-07T13:38:45;0.40;;;0.40;;
19183;SDS011;9724;51.194;6.856;2022-08-07T13:41:23;2.53;;;0.77;;
19183;SDS011;9724;51.194;6.856;2022-08-07T13:43:56;0.80;;;0.80;;
19183;SDS011;9724;51.194;6.856;2022-08-07T13:46:30;3.07;;;0.80;;
19183;SDS011;9724;51.194;6.856;2022-08-07T13:49:15;1.03;;;0.67;;
19183;SDS011;9724;51.194;6.856;2022-08-07T13:52:04;5.23;;;0.73;;
19183;SDS011;9724;51.194;6.856;2022-08-07T13:54:54;0.70;;;0.63;;
19183;SDS011;9724;51.194;6.856;2022-08-07T13:57:25;0.60;;;0.60;;
19183;SDS011;9724;51.194;6.856;2022-08-07T14:00:03;0.70;;;0.70;;
19183;SDS011;9724;51.194;6.856;2022-08-07T14:02:39;0.70;;;0.70;;
19183;SDS011;9724;51.194;6.856;2022-08-07T14:05:20;1.40;;;0.70;;
19183;SDS011;9724;51.194;6.856;2022-08-07T14:08:02;1.93;;;0.70;;
19183;SDS011;9724;51.194;6.856;2022-08-07T14:10:33;0.63;;;0.53;;
19183;SDS011;9724;51.194;6.856;2022-08-07T14:13:11;2.37;;;0.70;;
19183;SDS011;9724;51.194;6.856;2022-08-07T14:15:42;0.50;;;0.50;;
19183;SDS011;9724;51.194;6.856;2022-08-07T14:18:17;0.70;;;0.70;;
19183;SDS011;9724;51.194;6.856;2022-08-07T14:20:59;0.87;;;0.70;;
19183;SDS011;9724;51.194;6.856;2022-08-07T14:23:33;0.57;;;0.57;;
19183;SDS011;9724;51.194;6.856;2022-08-07T14:26:24;1.10;;;0.70;;
19183;SDS011;9724;51.194;6.856;2022-08-07T14:29:16;0.63;;;0.63;;
19183;SDS011;9724;51.194;6.856;2022-08-07T14:32:05;0.60;;;0.60;;
19183;SDS011;9724;51.194;6.856;2022-08-07T14:34:38;2.47;;;0.70;;
19183;SDS011;9724;51.194;6.856;2022-08-07T14:37:12;1.27;;;0.90;;
19183;SDS011;9724;51.194;6.856;2022-08-07T14:39:43;0.70;;;0.70;;
19183;SDS011;9724;51.194;6.856;2022-08-07T14:42:32;1.80;;;0.70;;
19183;SDS011;9724;51.194;6.856;2022-08-07T14:45:24;0.70;;;0.60;;
19183;SDS011;9724;51.194;6.856;2022-08-07T14:48:14;1.03;;;0.80;;
19183;SDS011;9724;51.194;6.856;2022-08-07T14:50:46;1.07;;;0.80;;
19183;SDS011;9724;51.194;6.856;2022-08-07T14:53:35;0.93;;;0.80;;
19183;SDS011;9724;51.194;6.856;2022-08-07T14:56:26;1.10;;;0.60;;
19183;SDS011;9724;51.194;6.856;2022-08-07T14:58:56;0.80;;;0.80;;
19183;SDS011;9724;51.194;6.856;2022-08-07T15:01:30;1.23;;;0.77;;
19183;SDS011;9724;51.194;6.856;2022-08-07T15:04:08;1.83;;;0.60;;
19183;SDS011;9724;51.194;6.856;2022-08-07T15:06:37;1.63;;;0.90;;
19183;SDS011;9724;51.194;6.856;2022-08-07T15:09:13;2.63;;;1.00;;
19183;SDS011;9724;51.194;6.856;2022-08-07T15:12:04;2.33;;;0.70;;
19183;SDS011;9724;51.194;6.856;2022-08-07T15:14:34;0.83;;;0.83;;
19183;SDS011;9724;51.194;6.856;2022-08-07T15:17:25;1.23;;;0.80;;
19183;SDS011;9724;51.194;6.856;2022-08-07T15:20:17;1.80;;;1.00;;
19183;SDS011;9724;51.194;6.856;2022-08-07T15:23:10;3.30;;;1.10;;
19183;SDS011;9724;51.194;6.856;2022-08-07T15:25:49;0.70;;;0.70;;
19183;SDS011;9724;51.194;6.856;2022-08-07T15:28:19;1.17;;;0.90;;
19183;SDS011;9724;51.194;6.856;2022-08-07T15:31:07;2.97;;;0.80;;
19183;SDS011;9724;51.194;6.856;2022-08-07T15:33:39;0.70;;;0.70;;
19183;SDS011;9724;51.194;6.856;2022-08-07T15:36:08;1.20;;;0.63;;
19183;SDS011;9724;51.194;6.856;2022-08-07T15:38:36;2.27;;;0.90;;
19183;SDS011;9724;51.194;6.856;2022-08-07T15:41:28;2.73;;;0.80;;
19183;SDS011;9724;51.194;6.856;2022-08-07T15:44:17;1.00;;;0.80;;
19183;SDS011;9724;51.194;6.856;2022-08-07T15:46:52;3.47;;;0.80;;
19183;SDS011;9724;51.194;6.856;2022-08-07T15:49:25;1.50;;;0.60;;
19183;SDS011;9724;51.194;6.856;2022-08-07T15:52:18;1.43;;;0.70;;
19183;SDS011;9724;51.194;6.856;2022-08-07T15:54:56;1.37;;;0.80;;
19183;SDS011;9724;51.194;6.856;2022-08-07T15:57:29;0.60;;;0.60;;
19183;SDS011;9724;51.194;6.856;2022-08-07T16:00:14;0.70;;;0.70;;
19183;SDS011;9724;51.194;6.856;2022-08-07T16:03:00;0.70;;;0.70;;
19183;SDS011;9724;51.194;6.856;2022-08-07T16:05:31;2.83;;;0.97;;
19183;SDS011;9724;51.194;6.856;2022-08-07T16:08:02;1.90;;;0.83;;
19183;SDS011;9724;51.194;6.856;2022-08-07T16:10:54;2.20;;;1.00;;
19183;SDS011;9724;51.194;6.856;2022-08-07T16:16:30;0.70;;;0.60;;
19183;SDS011;9724;51.194;6.856;2022-08-07T16:19:23;0.70;;;0.70;;
19183;SDS011;9724;51.194;6.856;2022-08-07T16:22:29;2.83;;;0.70;;
19183;SDS011;9724;51.194;6.856;2022-08-07T16:25:27;1.50;;;0.67;;
19183;SDS011;9724;51.194;6.856;2022-08-07T16:28:28;1.13;;;0.90;;